createdAt,value
2017-08-14T08:38:55.471Z,99.90
2017-08-14T08:41:23.058Z,99.90
2017-08-14T08:43:50.639Z,99.90
2017-08-14T08:46:18.221Z,99.90
2017-08-14T08:48:45.805Z,99.90
2017-08-14T08:51:13.361Z,99.90
2017-08-14T08:53:40.918Z,99.90
2017-08-14T08:56:08.493Z,99.90
2017-08-14T08:58:36.069Z,99.90
2017-08-14T09:01:03.650Z,99.90
2017-08-14T09:03:31.990Z,99.90
2017-08-14T09:05:59.756Z,99.90
2017-08-14T09:08:27.346Z,99.90
2017-08-14T09:10:55.715Z,99.90
2017-08-14T09:13:23.291Z,99.90
2017-08-14T09:15:50.874Z,99.90
2017-08-14T09:18:19.194Z,99.90
2017-08-14T09:20:46.754Z,99.90
2017-08-14T09:23:14.341Z,99.90
2017-08-14T09:25:41.890Z,99.90
2017-08-14T09:28:09.451Z,99.90
2017-08-14T09:30:37.029Z,99.90
2017-08-14T09:33:04.589Z,99.90
2017-08-14T09:35:32.202Z,99.90
2017-08-14T09:37:59.750Z,99.90
2017-08-14T09:40:28.242Z,99.90
2017-08-14T09:42:55.819Z,99.90
2017-08-14T09:45:23.410Z,99.90
2017-08-14T09:47:50.968Z,99.90
2017-08-14T09:50:18.550Z,99.90
2017-08-14T09:52:46.158Z,99.90
2017-08-14T09:55:13.698Z,99.90
2017-08-14T09:57:42.041Z,99.90
2017-08-14T10:00:09.595Z,99.90
2017-08-14T10:02:37.547Z,99.90
2017-08-14T10:05:05.126Z,99.90
2017-08-14T10:07:32.698Z,99.90
2017-08-14T10:10:00.307Z,99.90
2017-08-14T10:12:28.647Z,99.90
2017-08-14T10:14:56.206Z,99.90
2017-08-14T10:17:23.870Z,99.90
2017-08-14T10:19:51.458Z,99.90
2017-08-14T10:22:19.025Z,99.90
2017-08-14T10:24:46.598Z,99.90
2017-08-14T10:27:14.993Z,99.90
2017-08-14T10:29:43.322Z,99.90
2017-08-14T10:32:10.970Z,99.90
2017-08-14T10:34:38.575Z,99.90
2017-08-14T10:37:06.913Z,99.90
2017-08-14T10:39:34.501Z,99.90
2017-08-14T10:42:02.050Z,99.90
2017-08-14T10:44:29.607Z,99.90
2017-08-14T10:46:57.319Z,99.90
2017-08-14T10:49:24.881Z,99.90
2017-08-14T10:51:52.487Z,99.90
2017-08-14T10:54:20.051Z,99.90
2017-08-14T10:56:47.630Z,99.90
2017-08-14T10:59:15.199Z,99.90
2017-08-14T11:01:42.748Z,99.90
2017-08-14T11:04:10.438Z,99.90
2017-08-14T11:06:38.015Z,99.90
2017-08-14T11:09:05.567Z,99.90
2017-08-14T11:11:33.139Z,99.90
2017-08-14T11:14:00.753Z,99.90
2017-08-14T11:16:28.319Z,99.30
2017-08-14T11:18:55.960Z,98.90
2017-08-14T11:21:23.542Z,94.20
2017-08-14T11:23:51.131Z,74.50
2017-08-14T11:26:18.745Z,70.00
2017-08-14T11:28:48.091Z,53.80
2017-08-14T11:31:15.632Z,54.10
2017-08-14T11:33:43.191Z,65.90
2017-08-14T11:36:10.906Z,58.10
2017-08-14T11:38:38.453Z,56.20
2017-08-14T11:41:06.019Z,48.70
2017-08-14T11:43:33.637Z,52.80
2017-08-14T11:46:01.314Z,57.40
2017-08-14T11:48:28.934Z,76.50
2017-08-14T11:50:56.511Z,81.60
2017-08-14T11:53:24.870Z,62.50
2017-08-14T11:55:52.480Z,61.70
2017-08-14T11:58:20.205Z,58.40
2017-08-14T12:00:48.542Z,51.70
2017-08-14T12:03:16.151Z,52.20
2017-08-14T12:05:44.611Z,49.60
2017-08-14T12:08:12.181Z,49.00
2017-08-14T12:10:40.557Z,51.10
2017-08-14T12:13:08.157Z,51.00
2017-08-14T12:15:36.486Z,51.30
2017-08-14T12:18:04.138Z,51.30
2017-08-14T12:20:31.830Z,69.40
2017-08-14T12:22:59.402Z,58.30
2017-08-14T12:25:26.989Z,54.40
2017-08-14T12:27:55.339Z,53.50
2017-08-14T12:30:22.923Z,53.00
2017-08-14T12:32:51.355Z,53.00
2017-08-14T12:35:18.921Z,53.00
2017-08-14T12:37:46.489Z,49.70
2017-08-14T12:40:14.073Z,54.90
2017-08-14T12:42:41.631Z,50.20
2017-08-14T12:45:09.222Z,50.80
2017-08-14T12:47:37.563Z,49.40
2017-08-14T12:50:05.133Z,49.30
2017-08-14T12:52:32.725Z,51.50
2017-08-14T12:55:00.307Z,51.20
2017-08-14T12:57:28.624Z,50.50
2017-08-14T12:59:56.256Z,50.00
2017-08-14T13:02:23.837Z,48.00
2017-08-14T13:04:51.548Z,47.60
2017-08-14T13:07:19.142Z,49.40
2017-08-14T13:09:48.321Z,45.90
2017-08-14T13:12:15.909Z,45.20
2017-08-14T13:14:44.268Z,50.40
2017-08-14T13:17:11.826Z,49.60
2017-08-14T13:19:39.426Z,51.00
2017-08-14T13:22:06.952Z,51.20
2017-08-14T13:24:34.527Z,53.90
2017-08-14T13:27:02.901Z,56.90
2017-08-14T13:29:30.499Z,55.60
2017-08-14T13:31:58.081Z,52.80
2017-08-14T13:34:25.691Z,48.50
2017-08-14T13:36:53.291Z,52.40
2017-08-14T13:39:20.897Z,53.70
2017-08-14T13:41:48.498Z,47.40
2017-08-14T13:44:16.885Z,47.60
2017-08-14T13:46:45.233Z,49.60
2017-08-14T13:49:12.836Z,49.80
2017-08-14T13:51:41.175Z,58.10
2017-08-14T13:54:08.736Z,58.10
2017-08-14T13:56:36.315Z,53.30
2017-08-14T13:59:04.639Z,51.10
2017-08-14T14:01:32.222Z,51.30
2017-08-14T14:03:59.817Z,52.90
2017-08-14T14:06:27.440Z,55.00
2017-08-14T14:08:55.005Z,58.80
2017-08-14T14:11:23.419Z,54.70
2017-08-14T14:13:50.982Z,55.60
2017-08-14T14:16:18.547Z,59.50
2017-08-14T14:18:46.125Z,56.30
2017-08-14T14:21:13.710Z,64.20
2017-08-14T14:23:41.298Z,67.30
2017-08-14T14:26:09.625Z,64.30
2017-08-14T14:28:37.234Z,64.00
2017-08-14T14:31:04.998Z,58.10
2017-08-14T14:33:33.342Z,56.50
2017-08-14T14:36:00.929Z,55.60
2017-08-14T14:38:28.517Z,55.80
2017-08-14T14:40:56.897Z,52.80
2017-08-14T14:43:25.403Z,57.70
2017-08-14T14:45:52.960Z,58.00
2017-08-14T14:48:20.620Z,57.20
2017-08-14T14:50:49.056Z,62.60
2017-08-14T14:53:16.642Z,62.70
2017-08-14T14:55:44.172Z,69.00
2017-08-14T14:58:11.775Z,70.80
2017-08-14T15:00:40.115Z,87.90
2017-08-14T15:03:07.698Z,88.20
2017-08-14T15:05:35.275Z,87.00
2017-08-14T15:08:02.863Z,90.80
2017-08-14T15:10:30.457Z,92.30
2017-08-14T15:12:57.999Z,92.50
2017-08-14T15:15:25.620Z,91.90
2017-08-14T15:17:53.223Z,91.70
2017-08-14T15:20:20.852Z,96.50
2017-08-14T15:22:48.409Z,94.90
2017-08-14T15:25:15.979Z,97.80
2017-08-14T15:27:43.574Z,94.70
2017-08-14T15:30:11.906Z,69.90
2017-08-14T15:32:39.488Z,68.40
2017-08-14T15:35:07.015Z,65.80
2017-08-14T15:37:34.617Z,82.90
2017-08-14T15:40:02.208Z,89.30
2017-08-14T15:42:29.794Z,93.60
2017-08-14T15:44:57.591Z,97.10
2017-08-14T15:47:25.178Z,94.10
2017-08-14T15:49:53.512Z,92.90
2017-08-14T15:52:21.090Z,93.90
2017-08-14T15:54:48.728Z,93.10
2017-08-14T15:57:16.305Z,94.20
2017-08-14T15:59:43.879Z,85.80
2017-08-14T16:02:11.472Z,75.70
2017-08-14T16:04:39.819Z,64.80
2017-08-14T16:07:07.429Z,64.10
